Time;durP1;ratioP1;P1;durP2;ratioP2;P2;SDS_P1;SDS_P2;PMS_P1;PMS_P2;Temp;Humidity;BMP_temperature;BMP_pressure;BME280_temperature;BME280_humidity;BME280_pressure;Samples;Min_cycle;Max_cycle;Signal;HPM_P1;HPM_P2
2022/03/04 00:02:01;;;;;;;13.70;8.97;;;;;;;;;;5022601;28;20235;-63
2022/03/04 00:04:30;;;;;;;13.73;9.23;;;;;;;;;;5020360;28;20217;-62
2022/03/04 00:06:57;;;;;;;13.87;8.37;;;;;;;;;;5016830;28;20238;-64
2022/03/04 00:09:24;;;;;;;12.73;8.47;;;;;;;;;;5021803;28;20211;-63
2022/03/04 00:11:52;;;;;;;14.27;8.53;;;;;;;;;;5015029;28;20217;-64
2022/03/04 00:14:20;;;;;;;14.17;8.93;;;;;;;;;;5019224;28;20206;-64
2022/03/04 00:16:47;;;;;;;13.47;8.63;;;;;;;;;;5023680;28;20777;-63
2022/03/04 00:19:14;;;;;;;14.80;9.40;;;;;;;;;;5017043;28;20585;-63
2022/03/04 00:21:50;;;;;;;14.33;9.00;;;;;;;;;;5026172;28;20581;-64
2022/03/04 00:24:18;;;;;;;15.13;9.80;;;;;;;;;;5023472;28;20209;-64
2022/03/04 00:26:46;;;;;;;11.90;8.97;;;;;;;;;;5017668;28;20890;-63
2022/03/04 00:29:14;;;;;;;13.87;8.87;;;;;;;;;;5025367;28;20214;-63
2022/03/04 00:31:41;;;;;;;16.03;9.70;;;;;;;;;;5039394;28;20695;-63
2022/03/04 00:34:11;;;;;;;16.53;10.50;;;;;;;;;;5022858;28;20748;-63
2022/03/04 00:36:39;;;;;;;14.97;9.90;;;;;;;;;;5013789;28;20743;-62
2022/03/04 00:39:12;;;;;;;15.10;9.30;;;;;;;;;;5026410;28;20408;-60
2022/03/04 00:41:40;;;;;;;13.87;8.83;;;;;;;;;;5028279;28;20298;-63
2022/03/04 00:44:08;;;;;;;13.47;8.83;;;;;;;;;;5026726;28;20275;-63
2022/03/04 00:46:36;;;;;;;14.83;9.40;;;;;;;;;;5030676;28;20226;-62
2022/03/04 00:49:04;;;;;;;14.43;9.03;;;;;;;;;;5041090;28;20212;-63
2022/03/04 00:51:32;;;;;;;15.57;10.60;;;;;;;;;;5023337;28;20218;-63
2022/03/04 00:54:01;;;;;;;16.30;10.00;;;;;;;;;;5018408;28;20218;-63
2022/03/04 00:56:28;;;;;;;15.67;10.70;;;;;;;;;;5023308;28;20319;-64
2022/03/04 00:58:56;;;;;;;18.00;11.20;;;;;;;;;;5024166;28;20593;-63
2022/03/04 01:01:23;;;;;;;17.10;11.00;;;;;;;;;;5010863;28;20244;-64
2022/03/04 01:03:52;;;;;;;16.13;10.40;;;;;;;;;;5024191;28;20205;-63
2022/03/04 01:06:22;;;;;;;17.03;10.73;;;;;;;;;;5018074;28;20236;-63
2022/03/04 01:08:57;;;;;;;20.30;12.00;;;;;;;;;;5092750;27;21749;-64
2022/03/04 01:11:25;;;;;;;16.70;10.93;;;;;;;;;;5078004;28;20308;-63
2022/03/04 01:13:52;;;;;;;16.33;10.80;;;;;;;;;;5070704;28;21211;-64
2022/03/04 01:16:19;;;;;;;18.90;10.20;;;;;;;;;;5075785;28;20309;-64
2022/03/04 01:18:47;;;;;;;15.97;10.50;;;;;;;;;;5072051;28;20293;-64
2022/03/04 01:21:15;;;;;;;16.77;10.47;;;;;;;;;;5072633;28;20607;-63
2022/03/04 01:23:42;;;;;;;17.10;11.23;;;;;;;;;;5073848;28;20197;-63
2022/03/04 01:26:10;;;;;;;15.13;9.93;;;;;;;;;;5075373;28;20239;-63
2022/03/04 01:28:37;;;;;;;15.97;10.30;;;;;;;;;;5068888;28;20228;-63
2022/03/04 01:31:04;;;;;;;16.00;10.73;;;;;;;;;;5080111;28;20578;-61
2022/03/04 01:33:32;;;;;;;15.70;10.40;;;;;;;;;;5096577;28;20204;-63
2022/03/04 01:35:59;;;;;;;17.53;11.10;;;;;;;;;;5088473;28;20236;-63
2022/03/04 01:38:27;;;;;;;13.63;10.07;;;;;;;;;;5079576;28;20205;-63
2022/03/04 01:40:55;;;;;;;16.83;11.20;;;;;;;;;;5075048;28;20639;-63
2022/03/04 01:43:22;;;;;;;17.97;10.83;;;;;;;;;;5074075;28;20545;-63
2022/03/04 01:45:49;;;;;;;17.80;10.33;;;;;;;;;;5086249;28;20737;-63
2022/03/04 01:48:19;;;;;;;17.30;10.30;;;;;;;;;;5070667;28;20241;-62
2022/03/04 01:50:51;;;;;;;16.50;10.90;;;;;;;;;;5075514;28;20270;-63
2022/03/04 01:53:19;;;;;;;14.10;10.00;;;;;;;;;;5080325;28;20212;-64
2022/03/04 01:55:47;;;;;;;13.70;10.03;;;;;;;;;;5069776;28;20241;-63
2022/03/04 01:58:14;;;;;;;17.63;10.50;;;;;;;;;;5076824;28;20211;-64
2022/03/04 02:00:41;;;;;;;16.00;10.20;;;;;;;;;;5066279;28;20206;-63
2022/03/04 02:03:10;;;;;;;15.60;10.03;;;;;;;;;;5078860;28;20694;-63
2022/03/04 02:05:38;;;;;;;16.93;11.00;;;;;;;;;;5071038;28;20219;-64
2022/03/04 02:08:05;;;;;;;17.23;11.47;;;;;;;;;;5074895;28;20221;-61
2022/03/04 02:10:33;;;;;;;15.63;9.97;;;;;;;;;;5077231;28;20227;-62
2022/03/04 02:13:00;;;;;;;16.77;10.43;;;;;;;;;;5069246;28;20330;-63
2022/03/04 02:15:27;;;;;;;13.83;9.83;;;;;;;;;;5083472;28;20204;-63
2022/03/04 02:17:55;;;;;;;13.77;9.33;;;;;;;;;;5071621;28;20213;-63
2022/03/04 02:20:22;;;;;;;16.37;10.13;;;;;;;;;;5065796;28;20697;-62
2022/03/04 02:22:50;;;;;;;15.77;9.73;;;;;;;;;;5053814;28;20222;-62
2022/03/04 02:25:17;;;;;;;16.73;10.70;;;;;;;;;;5059524;28;20296;-62
2022/03/04 02:27:45;;;;;;;17.87;10.60;;;;;;;;;;5070699;28;20247;-63
2022/03/04 02:30:14;;;;;;;18.20;10.23;;;;;;;;;;5058723;28;20213;-62
2022/03/04 02:32:41;;;;;;;15.87;10.03;;;;;;;;;;5058693;28;20276;-63
2022/03/04 02:35:09;;;;;;;16.20;10.10;;;;;;;;;;5055931;28;20207;-64
2022/03/04 02:37:38;;;;;;;17.20;10.27;;;;;;;;;;5055187;28;20229;-63
2022/03/04 02:40:06;;;;;;;16.67;10.63;;;;;;;;;;5063223;28;20261;-65
2022/03/04 02:42:33;;;;;;;18.53;10.70;;;;;;;;;;5062863;28;20222;-62
2022/03/04 02:45:01;;;;;;;16.90;10.93;;;;;;;;;;5056896;28;20214;-63
2022/03/04 02:47:28;;;;;;;15.77;10.00;;;;;;;;;;5059665;28;20229;-62
2022/03/04 02:49:55;;;;;;;15.90;10.77;;;;;;;;;;5058103;28;20203;-62
2022/03/04 02:52:23;;;;;;;17.63;10.40;;;;;;;;;;5066937;28;20240;-64
2022/03/04 02:54:50;;;;;;;19.90;10.30;;;;;;;;;;5061651;28;20215;-63
2022/03/04 02:57:18;;;;;;;17.57;9.70;;;;;;;;;;5060453;28;20221;-63
2022/03/04 02:59:45;;;;;;;20.57;10.63;;;;;;;;;;5059195;28;20195;-63
2022/03/04 03:02:12;;;;;;;15.00;10.17;;;;;;;;;;5052797;28;21728;-64
2022/03/04 03:04:40;;;;;;;19.13;10.30;;;;;;;;;;5061405;28;20868;-64
2022/03/04 03:07:08;;;;;;;16.70;10.00;;;;;;;;;;5057677;28;20234;-63
2022/03/04 03:09:35;;;;;;;18.63;11.10;;;;;;;;;;5055518;28;20291;-63
2022/03/04 03:12:03;;;;;;;18.50;10.67;;;;;;;;;;5063941;28;20202;-63
2022/03/04 03:14:30;;;;;;;18.23;11.47;;;;;;;;;;5055997;28;20213;-63
2022/03/04 03:16:58;;;;;;;19.10;10.97;;;;;;;;;;5053488;28;20230;-63
2022/03/04 03:19:25;;;;;;;19.43;12.00;;;;;;;;;;5055107;28;20292;-64
2022/03/04 03:21:53;;;;;;;19.37;12.20;;;;;;;;;;5053866;28;20197;-63
2022/03/04 03:24:20;;;;;;;19.10;12.00;;;;;;;;;;5054402;28;20227;-63
2022/03/04 03:26:47;;;;;;;20.57;11.40;;;;;;;;;;5060820;28;20730;-64
2022/03/04 03:29:15;;;;;;;17.97;10.93;;;;;;;;;;5059609;28;20217;-63
2022/03/04 03:31:43;;;;;;;17.43;11.80;;;;;;;;;;5055904;28;20220;-62
2022/03/04 03:34:11;;;;;;;17.70;11.37;;;;;;;;;;5056950;28;20217;-63
2022/03/04 03:36:38;;;;;;;18.17;11.63;;;;;;;;;;5078411;28;20229;-62
2022/03/04 03:39:08;;;;;;;20.63;11.73;;;;;;;;;;5061281;28;20687;-64
2022/03/04 03:41:36;;;;;;;20.57;12.00;;;;;;;;;;5072980;28;20259;-62
2022/03/04 03:44:03;;;;;;;21.13;12.57;;;;;;;;;;5063020;28;20205;-64
2022/03/04 03:46:31;;;;;;;20.20;12.00;;;;;;;;;;5061258;28;20225;-64
2022/03/04 03:48:59;;;;;;;19.80;12.13;;;;;;;;;;5053472;28;20234;-63
2022/03/04 03:51:26;;;;;;;18.73;11.77;;;;;;;;;;5054859;28;20296;-64
2022/03/04 03:53:54;;;;;;;20.80;11.37;;;;;;;;;;5060022;28;20561;-64
2022/03/04 03:56:21;;;;;;;18.27;10.60;;;;;;;;;;5057467;28;20217;-64
2022/03/04 03:58:49;;;;;;;18.07;11.63;;;;;;;;;;5061572;28;20209;-62
2022/03/04 04:01:16;;;;;;;26.97;14.20;;;;;;;;;;5053554;28;20210;-64
2022/03/04 04:03:43;;;;;;;28.63;14.73;;;;;;;;;;5063655;28;20227;-62
2022/03/04 04:06:11;;;;;;;33.63;17.33;;;;;;;;;;5057642;28;20267;-64
2022/03/04 04:08:38;;;;;;;20.80;12.13;;;;;;;;;;5061069;28;20711;-62
2022/03/04 04:11:05;;;;;;;18.60;11.83;;;;;;;;;;5058418;28;20688;-63
2022/03/04 04:13:33;;;;;;;18.83;10.80;;;;;;;;;;5060703;28;20671;-63
2022/03/04 04:16:01;;;;;;;19.63;11.53;;;;;;;;;;5052470;28;20348;-62
2022/03/04 04:18:28;;;;;;;21.43;12.43;;;;;;;;;;5052862;28;20676;-63
2022/03/04 04:20:56;;;;;;;23.33;13.63;;;;;;;;;;5054222;28;20210;-61
2022/03/04 04:23:23;;;;;;;23.07;13.40;;;;;;;;;;5049483;28;20283;-62
2022/03/04 04:25:51;;;;;;;20.93;12.17;;;;;;;;;;5051622;28;20235;-62
2022/03/04 04:28:18;;;;;;;21.53;11.87;;;;;;;;;;5063483;28;20240;-64
2022/03/04 04:30:46;;;;;;;20.20;11.83;;;;;;;;;;5056425;28;20213;-63
2022/03/04 04:33:14;;;;;;;23.40;12.57;;;;;;;;;;5055795;28;20297;-62
2022/03/04 04:35:41;;;;;;;19.47;11.50;;;;;;;;;;5058723;28;20276;-64
2022/03/04 04:38:09;;;;;;;19.83;11.77;;;;;;;;;;5059359;28;20671;-64
2022/03/04 04:40:37;;;;;;;18.73;10.87;;;;;;;;;;5050417;28;20201;-62
2022/03/04 04:43:05;;;;;;;22.23;11.60;;;;;;;;;;5051728;28;20625;-63
2022/03/04 04:45:32;;;;;;;18.83;11.40;;;;;;;;;;5060763;28;20210;-62
2022/03/04 04:47:59;;;;;;;21.17;12.03;;;;;;;;;;5058928;28;20252;-64
2022/03/04 04:50:27;;;;;;;17.50;11.23;;;;;;;;;;5061162;28;20670;-64
2022/03/04 04:52:54;;;;;;;23.63;12.63;;;;;;;;;;5060770;28;20228;-62
2022/03/04 04:55:21;;;;;;;19.50;12.17;;;;;;;;;;5056432;28;20205;-65
2022/03/04 04:57:49;;;;;;;20.63;11.93;;;;;;;;;;5061559;28;20213;-63
2022/03/04 05:00:17;;;;;;;19.90;12.07;;;;;;;;;;5058488;28;20240;-64
2022/03/04 05:02:44;;;;;;;27.27;14.53;;;;;;;;;;5059782;28;20201;-64
2022/03/04 05:05:12;;;;;;;30.00;14.67;;;;;;;;;;5063752;28;20205;-63
2022/03/04 05:07:40;;;;;;;23.33;13.43;;;;;;;;;;5053413;28;20325;-62
2022/03/04 05:10:07;;;;;;;24.43;13.33;;;;;;;;;;5058827;28;20204;-63
2022/03/04 05:12:35;;;;;;;22.33;12.97;;;;;;;;;;5063194;28;20213;-63
2022/03/04 05:15:02;;;;;;;25.27;13.70;;;;;;;;;;5060948;28;20336;-62
2022/03/04 05:17:30;;;;;;;21.00;12.67;;;;;;;;;;5049354;28;20228;-62
2022/03/04 05:19:57;;;;;;;21.30;12.47;;;;;;;;;;5051467;28;21519;-62
2022/03/04 05:22:25;;;;;;;22.63;13.07;;;;;;;;;;5052999;28;20198;-61
2022/03/04 05:24:53;;;;;;;21.70;12.90;;;;;;;;;;5058011;28;20210;-63
2022/03/04 05:27:20;;;;;;;23.47;14.03;;;;;;;;;;5051736;28;20233;-62
2022/03/04 05:29:47;;;;;;;22.67;12.63;;;;;;;;;;5055209;28;20308;-62
2022/03/04 05:32:15;;;;;;;19.63;11.87;;;;;;;;;;5058004;28;20193;-63
2022/03/04 05:34:43;;;;;;;17.63;11.60;;;;;;;;;;5052330;28;20202;-62
2022/03/04 05:37:10;;;;;;;21.47;11.23;;;;;;;;;;5047271;28;20218;-63
2022/03/04 05:39:38;;;;;;;19.97;11.83;;;;;;;;;;5056218;28;20213;-62
2022/03/04 05:42:05;;;;;;;17.83;11.53;;;;;;;;;;5042052;28;20229;-62
2022/03/04 05:44:33;;;;;;;22.00;12.87;;;;;;;;;;5058036;28;20354;-62
2022/03/04 05:47:00;;;;;;;19.90;12.67;;;;;;;;;;5051150;28;20229;-63
2022/03/04 05:49:28;;;;;;;23.07;13.03;;;;;;;;;;5052658;28;23032;-62
2022/03/04 05:51:55;;;;;;;25.47;13.37;;;;;;;;;;5056068;28;20571;-63
2022/03/04 05:54:24;;;;;;;23.33;12.80;;;;;;;;;;5056940;28;20206;-62
2022/03/04 05:56:51;;;;;;;25.03;13.10;;;;;;;;;;5063296;28;20225;-63
2022/03/04 05:59:19;;;;;;;21.37;13.43;;;;;;;;;;5063310;28;20205;-61
2022/03/04 06:01:46;;;;;;;23.83;13.53;;;;;;;;;;5057135;28;20248;-64
2022/03/04 06:04:14;;;;;;;24.87;13.30;;;;;;;;;;5055831;28;20201;-63
2022/03/04 06:06:41;;;;;;;20.90;11.83;;;;;;;;;;5063608;28;20225;-61
2022/03/04 06:09:09;;;;;;;23.10;12.70;;;;;;;;;;5063998;28;20229;-61
2022/03/04 06:11:36;;;;;;;18.90;11.67;;;;;;;;;;5063244;28;20193;-62
2022/03/04 06:14:04;;;;;;;19.50;11.67;;;;;;;;;;5059035;28;20197;-63
2022/03/04 06:16:31;;;;;;;24.90;13.10;;;;;;;;;;5059907;28;20225;-62
2022/03/04 06:18:59;;;;;;;22.80;12.37;;;;;;;;;;5045047;28;20210;-63
2022/03/04 06:21:26;;;;;;;21.30;13.27;;;;;;;;;;5048518;28;20279;-64
2022/03/04 06:23:53;;;;;;;22.20;12.40;;;;;;;;;;5052262;28;20299;-64
2022/03/04 06:26:21;;;;;;;21.20;12.97;;;;;;;;;;5061616;28;20226;-62
2022/03/04 06:28:48;;;;;;;24.27;13.90;;;;;;;;;;5054047;28;20225;-60
2022/03/04 06:31:16;;;;;;;23.37;13.60;;;;;;;;;;5061669;28;20243;-63
2022/03/04 06:33:44;;;;;;;21.33;13.43;;;;;;;;;;5061848;28;20246;-61
2022/03/04 06:36:16;;;;;;;26.20;14.43;;;;;;;;;;5049868;28;20240;-63
2022/03/04 06:38:45;;;;;;;24.53;13.10;;;;;;;;;;5059635;28;20205;-63
2022/03/04 06:41:13;;;;;;;21.47;13.67;;;;;;;;;;5059148;28;20217;-63
2022/03/04 06:43:41;;;;;;;23.63;13.90;;;;;;;;;;5056253;28;20214;-63
2022/03/04 06:46:09;;;;;;;23.07;13.10;;;;;;;;;;5052085;28;20222;-61
2022/03/04 06:48:36;;;;;;;24.53;14.97;;;;;;;;;;5061384;28;20245;-63
2022/03/04 06:51:04;;;;;;;27.20;15.80;;;;;;;;;;5058609;28;20812;-61
2022/03/04 06:53:32;;;;;;;26.83;17.20;;;;;;;;;;5060623;28;20201;-63
2022/03/04 06:55:59;;;;;;;31.53;18.67;;;;;;;;;;5064845;28;20234;-61
2022/03/04 06:58:27;;;;;;;27.30;15.73;;;;;;;;;;5058231;28;20219;-63
2022/03/04 07:00:55;;;;;;;22.00;14.67;;;;;;;;;;5054794;28;20209;-63
2022/03/04 07:03:23;;;;;;;20.63;13.57;;;;;;;;;;5059286;28;20213;-61
2022/03/04 07:05:51;;;;;;;22.10;13.73;;;;;;;;;;5056709;28;20979;-61
2022/03/04 07:08:19;;;;;;;25.93;14.10;;;;;;;;;;5057133;28;20217;-61
2022/03/04 07:10:47;;;;;;;21.77;13.60;;;;;;;;;;5054839;28;20258;-61
2022/03/04 07:13:15;;;;;;;23.20;13.77;;;;;;;;;;5063023;28;20255;-60
2022/03/04 07:15:43;;;;;;;25.30;13.20;;;;;;;;;;5056375;28;20229;-61
2022/03/04 07:18:11;;;;;;;21.50;13.10;;;;;;;;;;5060687;28;20212;-62
2022/03/04 07:20:40;;;;;;;22.47;14.23;;;;;;;;;;5052634;28;20210;-62
2022/03/04 07:23:08;;;;;;;25.50;14.73;;;;;;;;;;5063281;28;20246;-61
2022/03/04 07:25:35;;;;;;;24.57;13.07;;;;;;;;;;5061899;28;20205;-61
2022/03/04 07:28:03;;;;;;;22.43;12.63;;;;;;;;;;5062471;28;20210;-62
2022/03/04 07:30:31;;;;;;;22.47;13.27;;;;;;;;;;5071889;28;20278;-64
2022/03/04 07:32:59;;;;;;;23.70;14.17;;;;;;;;;;5061268;28;20285;-63
2022/03/04 07:35:26;;;;;;;21.23;12.73;;;;;;;;;;5059557;28;20207;-64
2022/03/04 07:37:54;;;;;;;19.10;12.13;;;;;;;;;;5059312;28;20205;-62
2022/03/04 07:40:21;;;;;;;23.83;13.57;;;;;;;;;;5058164;28;20213;-61
2022/03/04 07:42:48;;;;;;;24.03;13.07;;;;;;;;;;5049698;28;20244;-63
2022/03/04 07:45:16;;;;;;;23.50;12.60;;;;;;;;;;5046654;28;20247;-62
2022/03/04 07:47:43;;;;;;;20.40;12.37;;;;;;;;;;5051284;28;20218;-62
2022/03/04 07:50:13;;;;;;;24.07;12.27;;;;;;;;;;5046730;28;20230;-61
2022/03/04 07:52:40;;;;;;;22.77;12.67;;;;;;;;;;5057150;28;20207;-63
2022/03/04 07:55:12;;;;;;;28.77;14.50;;;;;;;;;;5056874;28;20346;-61
2022/03/04 07:57:40;;;;;;;24.83;13.13;;;;;;;;;;5091446;28;20242;-64
2022/03/04 08:00:08;;;;;;;21.47;13.47;;;;;;;;;;5064056;28;20213;-61
2022/03/04 08:02:36;;;;;;;19.37;12.10;;;;;;;;;;5053774;28;20203;-62
2022/03/04 08:05:04;;;;;;;19.87;12.37;;;;;;;;;;5049060;28;20218;-61
2022/03/04 08:07:31;;;;;;;19.17;11.80;;;;;;;;;;5066890;28;20237;-63
2022/03/04 08:09:58;;;;;;;20.40;12.13;;;;;;;;;;5052219;28;20312;-61
2022/03/04 08:12:26;;;;;;;21.30;12.83;;;;;;;;;;5053644;28;20201;-62
2022/03/04 08:14:53;;;;;;;18.93;12.20;;;;;;;;;;5057225;28;20216;-60
2022/03/04 08:17:21;;;;;;;21.20;12.77;;;;;;;;;;5046312;28;20213;-64
2022/03/04 08:19:48;;;;;;;23.67;12.77;;;;;;;;;;5052934;28;20328;-62
2022/03/04 08:22:15;;;;;;;19.97;11.43;;;;;;;;;;5056346;28;20208;-62
2022/03/04 08:24:57;;;;;;;21.00;12.03;;;;;;;;;;5062734;28;20213;-62
2022/03/04 08:27:25;;;;;;;19.50;11.97;;;;;;;;;;5064710;28;20307;-63
2022/03/04 08:29:52;;;;;;;18.93;12.40;;;;;;;;;;5050199;28;20228;-64
2022/03/04 08:32:23;;;;;;;18.47;11.67;;;;;;;;;;5062981;28;20255;-61
2022/03/04 08:34:59;;;;;;;22.73;12.73;;;;;;;;;;5054181;28;20216;-61
2022/03/04 08:37:27;;;;;;;20.20;12.10;;;;;;;;;;5054745;28;20221;-60
2022/03/04 08:39:54;;;;;;;20.47;12.60;;;;;;;;;;5059799;28;20205;-64
2022/03/04 08:42:22;;;;;;;20.23;12.30;;;;;;;;;;5056360;28;20221;-61
2022/03/04 08:44:49;;;;;;;20.50;12.63;;;;;;;;;;5057425;28;20229;-62
2022/03/04 08:47:17;;;;;;;22.87;12.77;;;;;;;;;;5060924;28;20609;-61
2022/03/04 08:49:45;;;;;;;22.73;13.30;;;;;;;;;;5062972;28;20239;-61
2022/03/04 08:52:12;;;;;;;20.77;12.53;;;;;;;;;;5053752;28;20783;-62
2022/03/04 08:54:40;;;;;;;21.20;12.87;;;;;;;;;;5060827;28;20197;-62
2022/03/04 08:57:07;;;;;;;22.27;13.50;;;;;;;;;;5056833;28;20226;-61
2022/03/04 08:59:36;;;;;;;21.73;13.07;;;;;;;;;;5054391;28;20832;-62
2022/03/04 09:02:04;;;;;;;21.13;12.60;;;;;;;;;;5050545;28;20216;-64
2022/03/04 09:04:31;;;;;;;22.10;12.80;;;;;;;;;;5062501;28;20232;-60
2022/03/04 09:06:59;;;;;;;21.73;12.90;;;;;;;;;;5057971;28;20237;-61
2022/03/04 09:09:28;;;;;;;19.63;12.97;;;;;;;;;;5058636;28;20225;-61
2022/03/04 09:11:56;;;;;;;20.87;12.53;;;;;;;;;;5063599;28;20205;-62
2022/03/04 09:14:23;;;;;;;20.37;12.97;;;;;;;;;;5061612;28;20205;-62
2022/03/04 09:16:51;;;;;;;20.67;12.60;;;;;;;;;;5050298;28;20706;-61
2022/03/04 09:19:21;;;;;;;20.93;12.47;;;;;;;;;;5060770;28;20282;-62
2022/03/04 09:22:11;;;;;;;19.33;12.37;;;;;;;;;;5062288;28;20210;-63
2022/03/04 09:24:38;;;;;;;23.00;13.00;;;;;;;;;;5062673;28;20209;-64
2022/03/04 09:27:06;;;;;;;19.93;12.10;;;;;;;;;;5057156;28;20218;-63
2022/03/04 09:29:34;;;;;;;21.03;13.13;;;;;;;;;;5062438;28;20286;-61
2022/03/04 09:32:02;;;;;;;19.93;12.20;;;;;;;;;;5062943;28;20201;-62
2022/03/04 09:34:29;;;;;;;19.03;12.33;;;;;;;;;;5058730;28;20281;-64
2022/03/04 09:36:57;;;;;;;23.83;12.43;;;;;;;;;;5069325;28;20223;-65
2022/03/04 09:39:25;;;;;;;20.33;12.23;;;;;;;;;;5072043;28;20203;-63
2022/03/04 09:41:53;;;;;;;18.60;11.63;;;;;;;;;;5045513;28;20203;-64
2022/03/04 09:44:21;;;;;;;20.97;11.93;;;;;;;;;;5063595;28;20685;-62
2022/03/04 09:46:49;;;;;;;21.87;12.30;;;;;;;;;;5066124;28;20231;-63
2022/03/04 09:49:22;;;;;;;18.47;11.60;;;;;;;;;;5067282;28;20217;-64
2022/03/04 09:51:50;;;;;;;19.40;11.53;;;;;;;;;;5058118;28;20631;-64
2022/03/04 09:54:17;;;;;;;20.90;11.97;;;;;;;;;;5067489;28;20252;-63
2022/03/04 09:56:44;;;;;;;19.70;11.80;;;;;;;;;;5063736;28;20226;-63
2022/03/04 09:59:13;;;;;;;18.33;11.53;;;;;;;;;;5067378;28;20263;-65
2022/03/04 10:01:41;;;;;;;17.60;11.37;;;;;;;;;;5062860;28;20221;-64
2022/03/04 10:04:08;;;;;;;19.70;12.20;;;;;;;;;;5071800;28;20212;-63
2022/03/04 10:06:38;;;;;;;28.50;14.83;;;;;;;;;;5064553;28;20283;-64
2022/03/04 10:09:06;;;;;;;26.67;13.77;;;;;;;;;;5064293;28;20261;-62
2022/03/04 10:11:36;;;;;;;24.30;13.23;;;;;;;;;;5064057;28;20267;-64
2022/03/04 10:14:07;;;;;;;20.50;11.87;;;;;;;;;;5057974;28;20556;-64
2022/03/04 10:16:37;;;;;;;21.60;12.93;;;;;;;;;;5061703;28;20239;-64
2022/03/04 10:19:08;;;;;;;21.50;12.57;;;;;;;;;;5062262;28;20208;-61
2022/03/04 10:21:48;;;;;;;18.20;11.50;;;;;;;;;;5045726;28;20219;-63
2022/03/04 10:24:15;;;;;;;23.43;12.87;;;;;;;;;;5063302;28;20203;-61
2022/03/04 10:26:43;;;;;;;23.60;12.87;;;;;;;;;;5066043;28;20219;-61
2022/03/04 10:29:24;;;;;;;20.33;11.97;;;;;;;;;;5064727;28;20258;-62
2022/03/04 10:32:07;;;;;;;21.97;12.10;;;;;;;;;;5056326;28;20209;-65
2022/03/04 10:34:55;;;;;;;16.33;11.13;;;;;;;;;;5063540;28;20285;-62
2022/03/04 10:37:26;;;;;;;18.83;10.63;;;;;;;;;;5064379;28;20237;-61
2022/03/04 10:39:57;;;;;;;18.67;11.70;;;;;;;;;;5063500;28;20233;-63
2022/03/04 10:42:43;;;;;;;17.70;11.00;;;;;;;;;;5064184;28;20252;-62
2022/03/04 10:45:13;;;;;;;17.10;10.47;;;;;;;;;;5068950;28;20202;-64
2022/03/04 10:47:49;;;;;;;20.53;12.50;;;;;;;;;;5055656;28;22436;-64
2022/03/04 10:50:18;;;;;;;19.00;11.53;;;;;;;;;;5073074;28;20221;-64
2022/03/04 10:52:49;;;;;;;15.87;10.70;;;;;;;;;;5063867;28;20700;-63
2022/03/04 10:55:31;;;;;;;21.30;11.63;;;;;;;;;;5059297;28;20235;-62
2022/03/04 10:57:59;;;;;;;19.67;11.73;;;;;;;;;;5066885;28;20206;-63
2022/03/04 11:00:34;;;;;;;22.03;11.33;;;;;;;;;;5053746;28;20209;-63
2022/03/04 11:03:03;;;;;;;18.60;11.63;;;;;;;;;;5059384;28;20205;-64
2022/03/04 11:05:30;;;;;;;15.33;9.33;;;;;;;;;;5064988;28;20256;-63
2022/03/04 11:07:58;;;;;;;15.37;9.23;;;;;;;;;;5062876;28;20233;-64
2022/03/04 11:10:26;;;;;;;17.07;10.60;;;;;;;;;;5057249;28;20267;-64
2022/03/04 11:12:55;;;;;;;17.77;10.43;;;;;;;;;;5065183;28;20214;-64
2022/03/04 11:15:23;;;;;;;18.83;11.20;;;;;;;;;;5066203;28;20702;-65
2022/03/04 11:17:51;;;;;;;17.70;11.00;;;;;;;;;;5055737;28;20548;-62
2022/03/04 11:20:19;;;;;;;16.63;10.63;;;;;;;;;;5061540;28;20286;-64
2022/03/04 11:22:51;;;;;;;14.63;10.10;;;;;;;;;;5057064;28;20255;-64
2022/03/04 11:25:19;;;;;;;15.37;10.20;;;;;;;;;;5065501;28;20209;-64
2022/03/04 11:27:47;;;;;;;16.23;10.83;;;;;;;;;;5059915;28;20218;-64
2022/03/04 11:30:28;;;;;;;16.07;10.07;;;;;;;;;;5064929;28;20769;-63
2022/03/04 11:33:00;;;;;;;15.00;10.33;;;;;;;;;;5063654;28;20263;-64
2022/03/04 11:35:51;;;;;;;12.90;9.30;;;;;;;;;;5063015;28;20205;-64
2022/03/04 11:38:38;;;;;;;13.43;9.40;;;;;;;;;;5065205;28;20204;-64
2022/03/04 11:41:05;;;;;;;14.30;9.13;;;;;;;;;;5055979;28;20254;-63
2022/03/04 11:43:55;;;;;;;14.17;9.00;;;;;;;;;;5063491;28;20209;-63
2022/03/04 11:46:24;;;;;;;13.73;9.23;;;;;;;;;;5064642;28;20226;-64
2022/03/04 11:49:30;;;;;;;12.50;9.10;;;;;;;;;;5055398;28;20580;-63
2022/03/04 11:52:09;;;;;;;14.03;9.23;;;;;;;;;;5047144;28;20197;-64
2022/03/04 11:54:41;;;;;;;13.97;9.73;;;;;;;;;;5040537;28;20244;-64
2022/03/04 11:57:22;;;;;;;16.53;8.73;;;;;;;;;;5054859;28;20675;-62
2022/03/04 12:00:01;;;;;;;12.60;9.13;;;;;;;;;;5068237;28;20224;-63
2022/03/04 12:02:30;;;;;;;13.30;8.37;;;;;;;;;;5073135;28;20206;-63
2022/03/04 12:05:10;;;;;;;12.27;9.20;;;;;;;;;;5062621;28;20213;-64
2022/03/04 12:07:37;;;;;;;13.53;9.07;;;;;;;;;;5059733;28;20225;-64
2022/03/04 12:10:08;;;;;;;12.03;8.80;;;;;;;;;;5058607;28;20241;-64
2022/03/04 12:12:36;;;;;;;12.83;8.27;;;;;;;;;;5055837;28;20466;-63
2022/03/04 12:15:16;;;;;;;11.43;7.53;;;;;;;;;;5061431;28;20197;-63
2022/03/04 12:18:02;;;;;;;12.20;8.17;;;;;;;;;;5063469;28;20202;-63
2022/03/04 12:20:29;;;;;;;11.53;8.07;;;;;;;;;;5068419;28;20209;-64
2022/03/04 12:23:07;;;;;;;9.83;6.73;;;;;;;;;;5052698;28;20209;-65
2022/03/04 12:25:53;;;;;;;9.63;7.30;;;;;;;;;;5055507;28;20745;-65
2022/03/04 12:28:21;;;;;;;17.17;10.67;;;;;;;;;;5053919;28;20220;-62
2022/03/04 12:31:00;;;;;;;11.70;8.37;;;;;;;;;;5059136;28;20312;-65
2022/03/04 12:33:29;;;;;;;13.73;8.57;;;;;;;;;;5056937;28;20205;-64
2022/03/04 12:35:57;;;;;;;12.53;8.13;;;;;;;;;;5057569;28;20244;-62
2022/03/04 12:38:29;;;;;;;11.50;7.93;;;;;;;;;;5072703;28;20214;-63
2022/03/04 12:40:56;;;;;;;10.43;7.63;;;;;;;;;;5076405;28;20218;-64
2022/03/04 12:43:25;;;;;;;12.37;8.23;;;;;;;;;;5079844;28;20237;-65
2022/03/04 12:45:53;;;;;;;12.03;8.30;;;;;;;;;;5061368;28;20734;-65
2022/03/04 12:48:21;;;;;;;12.63;8.27;;;;;;;;;;5056166;28;20259;-64
2022/03/04 12:50:49;;;;;;;11.87;8.80;;;;;;;;;;5055495;28;20222;-63
2022/03/04 12:53:20;;;;;;;13.77;8.50;;;;;;;;;;5062951;28;20204;-64
2022/03/04 12:55:52;;;;;;;12.50;8.70;;;;;;;;;;5056189;28;20257;-64
2022/03/04 12:58:35;;;;;;;11.93;8.00;;;;;;;;;;5030767;28;20208;-65
2022/03/04 13:01:03;;;;;;;10.40;7.70;;;;;;;;;;5040208;28;20217;-63
2022/03/04 13:03:35;;;;;;;10.10;7.33;;;;;;;;;;5050332;28;20652;-65
2022/03/04 13:06:03;;;;;;;11.87;7.87;;;;;;;;;;5043835;28;20227;-65
2022/03/04 13:08:34;;;;;;;12.40;8.03;;;;;;;;;;5038010;28;20676;-65
2022/03/04 13:11:11;;;;;;;10.40;7.77;;;;;;;;;;5058451;28;20614;-65
2022/03/04 13:13:45;;;;;;;11.53;7.87;;;;;;;;;;5054711;28;20729;-63
2022/03/04 13:16:13;;;;;;;13.63;8.23;;;;;;;;;;5048076;28;20346;-66
2022/03/04 13:18:40;;;;;;;11.03;8.73;;;;;;;;;;5064713;28;20223;-65
2022/03/04 13:21:08;;;;;;;10.97;8.10;;;;;;;;;;5056906;28;20201;-64
2022/03/04 13:23:35;;;;;;;13.63;8.60;;;;;;;;;;5070031;28;20321;-65
2022/03/04 13:26:09;;;;;;;12.00;8.73;;;;;;;;;;5050101;28;20240;-63
2022/03/04 13:28:56;;;;;;;9.50;7.23;;;;;;;;;;5054323;28;20225;-67
2022/03/04 13:31:24;;;;;;;11.50;8.87;;;;;;;;;;5050837;28;20226;-64
2022/03/04 13:33:57;;;;;;;9.23;7.37;;;;;;;;;;5058935;28;20293;-63
2022/03/04 13:36:44;;;;;;;10.00;7.47;;;;;;;;;;5051572;28;20475;-62
2022/03/04 13:39:14;;;;;;;10.63;7.63;;;;;;;;;;5051202;28;20690;-61
2022/03/04 13:41:45;;;;;;;10.97;7.47;;;;;;;;;;5044439;28;20458;-62
2022/03/04 13:44:14;;;;;;;11.00;7.07;;;;;;;;;;5047955;28;20236;-63
2022/03/04 13:47:01;;;;;;;9.53;7.63;;;;;;;;;;5051842;28;20316;-61
2022/03/04 13:50:01;;;;;;;11.07;7.50;;;;;;;;;;5047147;28;20202;-64
2022/03/04 13:52:29;;;;;;;12.47;8.33;;;;;;;;;;5042635;28;20213;-62
2022/03/04 13:54:58;;;;;;;12.63;8.40;;;;;;;;;;5056274;28;20205;-63
2022/03/04 13:57:38;;;;;;;12.10;8.60;;;;;;;;;;5049531;28;20225;-64
2022/03/04 14:00:05;;;;;;;11.70;8.80;;;;;;;;;;5047641;28;20201;-63
2022/03/04 14:02:43;;;;;;;12.80;8.63;;;;;;;;;;5050546;28;20201;-63
2022/03/04 14:05:12;;;;;;;12.93;8.40;;;;;;;;;;5046865;28;20212;-66
2022/03/04 14:07:40;;;;;;;13.33;8.33;;;;;;;;;;5050790;28;20236;-65
2022/03/04 14:10:12;;;;;;;11.43;8.20;;;;;;;;;;5060117;28;20663;-68
2022/03/04 14:12:39;;;;;;;14.67;8.27;;;;;;;;;;5039714;28;20327;-65
2022/03/04 14:15:09;;;;;;;10.03;7.80;;;;;;;;;;5041852;28;20209;-65
2022/03/04 14:17:48;;;;;;;9.70;7.30;;;;;;;;;;5060259;28;20235;-64
2022/03/04 14:20:16;;;;;;;10.67;8.17;;;;;;;;;;5064640;28;20232;-65
2022/03/04 14:22:43;;;;;;;13.13;8.37;;;;;;;;;;5059616;28;20206;-63
2022/03/04 14:25:11;;;;;;;11.20;8.17;;;;;;;;;;5062851;28;20248;-64
2022/03/04 14:27:42;;;;;;;12.50;8.30;;;;;;;;;;5060755;28;20233;-64
2022/03/04 14:30:10;;;;;;;11.07;7.67;;;;;;;;;;5060223;28;20209;-63
2022/03/04 14:32:38;;;;;;;10.60;8.13;;;;;;;;;;5059977;28;20694;-66
2022/03/04 14:35:06;;;;;;;10.17;8.17;;;;;;;;;;5064801;28;20213;-64